createdAt,value
2018-04-01T00:01:57.894Z,49.28
2018-04-01T00:04:26.178Z,52.33
2018-04-01T00:06:53.744Z,52.00
2018-04-01T00:09:21.294Z,51.30
2018-04-01T00:11:48.797Z,46.75
2018-04-01T00:14:16.315Z,49.90
2018-04-01T00:16:43.817Z,48.90
2018-04-01T00:19:11.422Z,52.35
2018-04-01T00:21:39.694Z,50.67
2018-04-01T00:24:07.971Z,47.42
2018-04-01T00:26:36.345Z,51.00
2018-04-01T00:29:04.729Z,51.00
2018-04-01T00:31:33.009Z,51.90
2018-04-01T00:34:00.526Z,60.20
2018-04-01T00:36:28.043Z,61.05
2018-04-01T00:38:55.583Z,62.50
2018-04-01T00:41:23.098Z,63.58
2018-04-01T00:43:50.623Z,59.35
2018-04-01T00:46:18.125Z,65.30
2018-04-01T00:48:45.642Z,64.62
2018-04-01T00:51:13.153Z,61.72
2018-04-01T00:53:41.426Z,65.70
2018-04-01T00:56:09.809Z,62.10
2018-04-01T00:58:38.088Z,63.20
2018-04-01T01:01:06.370Z,60.63
2018-04-01T01:03:34.742Z,58.87
2018-04-01T01:06:03.026Z,51.92
2018-04-01T01:08:30.565Z,54.58
2018-04-01T01:10:58.861Z,57.55
2018-04-01T01:13:26.361Z,55.20
2018-04-01T01:15:53.965Z,49.53
2018-04-01T01:18:22.340Z,47.50
2018-04-01T01:20:50.765Z,50.05
2018-04-01T01:23:18.299Z,48.85
2018-04-01T01:25:46.661Z,45.63
2018-04-01T01:28:15.037Z,46.30
2018-04-01T01:30:43.399Z,43.60
2018-04-01T01:33:10.921Z,43.35
2018-04-01T01:35:38.433Z,45.80
2018-04-01T01:38:06.809Z,39.33
2018-04-01T01:40:35.083Z,38.15
2018-04-01T01:43:03.373Z,37.78
2018-04-01T01:45:30.886Z,36.53
2018-04-01T01:47:58.400Z,36.95
2018-04-01T01:50:25.918Z,40.15
2018-04-01T01:52:53.427Z,44.13
2018-04-01T01:55:20.938Z,39.22
2018-04-01T01:57:49.226Z,37.53
2018-04-01T02:00:17.506Z,36.72
2018-04-01T02:02:45.062Z,33.58
2018-04-01T02:05:13.434Z,36.42
2018-04-01T02:07:41.710Z,34.90
2018-04-01T02:10:10.014Z,34.47
2018-04-01T02:12:37.550Z,36.60
2018-04-01T02:15:05.821Z,32.60
2018-04-01T02:17:34.097Z,33.65
2018-04-01T02:20:02.373Z,38.05
2018-04-01T02:22:30.654Z,34.85
2018-04-01T02:24:58.169Z,37.90
2018-04-01T02:27:25.681Z,38.92
2018-04-01T02:29:53.197Z,37.40
2018-04-01T02:32:20.723Z,37.75
2018-04-01T02:34:48.231Z,38.38
2018-04-01T02:37:16.507Z,38.03
2018-04-01T02:39:44.887Z,38.88
2018-04-01T02:42:13.283Z,37.85
2018-04-01T02:44:40.795Z,39.33
2018-04-01T02:47:08.302Z,32.65
2018-04-01T02:49:35.815Z,37.03
2018-04-01T02:52:03.331Z,37.05
2018-04-01T02:54:30.833Z,38.47
2018-04-01T02:56:58.342Z,38.50
2018-04-01T02:59:25.867Z,38.75
2018-04-01T03:01:54.250Z,37.17
2018-04-01T03:04:22.626Z,38.75
2018-04-01T03:06:51.006Z,38.65
2018-04-01T03:09:19.386Z,35.40
2018-04-01T03:11:47.757Z,37.08
2018-04-01T03:14:16.037Z,34.85
2018-04-01T03:16:44.414Z,35.30
2018-04-01T03:19:12.682Z,31.45
2018-04-01T03:21:41.070Z,35.08
2018-04-01T03:24:09.378Z,35.38
2018-04-01T03:26:36.998Z,37.55
2018-04-01T03:29:05.379Z,36.67
2018-04-01T03:31:33.762Z,39.25
2018-04-01T03:34:02.137Z,38.65
2018-04-01T03:36:30.421Z,37.65
2018-04-01T03:38:57.933Z,36.45
2018-04-01T03:41:25.442Z,38.17
2018-04-01T03:43:52.964Z,36.22
2018-04-01T03:46:20.470Z,34.03
2018-04-01T03:48:48.002Z,33.92
2018-04-01T03:51:16.374Z,30.92
2018-04-01T03:53:44.768Z,31.70
2018-04-01T03:56:12.313Z,36.75
2018-04-01T03:58:40.621Z,34.80
2018-04-01T04:01:08.250Z,33.85
2018-04-01T04:03:36.530Z,33.03
2018-04-01T04:06:04.806Z,33.28
2018-04-01T04:08:32.313Z,30.85
2018-04-01T04:10:59.829Z,34.03
2018-04-01T04:13:27.379Z,32.47
2018-04-01T04:15:55.753Z,35.67
2018-04-01T04:18:24.139Z,35.90
2018-04-01T04:20:52.510Z,28.83
2018-04-01T04:23:20.785Z,30.62
2018-04-01T04:25:49.070Z,32.97
2018-04-01T04:28:16.593Z,34.85
2018-04-01T04:30:44.182Z,32.30
2018-04-01T04:33:12.453Z,28.23
2018-04-01T04:35:40.730Z,33.35
2018-04-01T04:38:09.002Z,34.05
2018-04-01T04:40:37.377Z,33.63
2018-04-01T04:43:05.758Z,35.42
2018-04-01T04:45:34.029Z,38.90
2018-04-01T04:48:02.309Z,36.78
2018-04-01T04:50:30.586Z,35.60
2018-04-01T04:52:58.962Z,36.72
2018-04-01T04:55:27.238Z,38.03
2018-04-01T04:57:55.520Z,38.47
2018-04-01T05:00:23.069Z,37.72
2018-04-01T05:02:51.433Z,40.12
2018-04-01T05:05:19.725Z,38.83
2018-04-01T05:07:47.998Z,33.45
2018-04-01T05:10:16.284Z,36.03
2018-04-01T05:12:43.802Z,39.17
2018-04-01T05:15:11.318Z,34.47
2018-04-01T05:17:38.849Z,35.38
2018-04-01T05:20:07.122Z,35.90
2018-04-01T05:22:35.425Z,35.20
2018-04-01T05:25:02.958Z,41.33
2018-04-01T05:27:31.310Z,36.88
2018-04-01T05:30:00.346Z,40.42
2018-04-01T05:32:27.864Z,44.53
2018-04-01T05:34:55.365Z,39.10
2018-04-01T05:37:22.901Z,40.12
2018-04-01T05:39:50.413Z,36.15
2018-04-01T05:42:18.022Z,44.17
2018-04-01T05:44:46.393Z,43.65
2018-04-01T05:47:14.673Z,42.88
2018-04-01T05:49:42.947Z,43.13
2018-04-01T05:52:11.225Z,43.38
2018-04-01T05:54:39.501Z,48.35
2018-04-01T05:57:07.028Z,52.70
2018-04-01T05:59:34.534Z,49.72
2018-04-01T06:02:02.058Z,53.58
2018-04-01T06:04:30.340Z,50.53
2018-04-01T06:06:58.625Z,49.00
2018-04-01T06:09:26.998Z,54.80
2018-04-01T06:11:55.274Z,49.05
2018-04-01T06:14:23.566Z,52.95
2018-04-01T06:16:51.065Z,49.15
2018-04-01T06:19:18.668Z,55.55
2018-04-01T06:21:47.044Z,53.83
2018-04-01T06:24:15.439Z,56.22
2018-04-01T06:26:42.985Z,57.30
2018-04-01T06:29:10.538Z,53.53
2018-04-01T06:31:38.814Z,53.65
2018-04-01T06:34:07.193Z,55.88
2018-04-01T06:36:35.485Z,56.15
2018-04-01T06:39:02.992Z,57.30
2018-04-01T06:41:32.123Z,49.70
2018-04-01T06:44:00.402Z,52.78
2018-04-01T06:46:28.780Z,51.25
2018-04-01T06:48:57.148Z,51.15
2018-04-01T06:51:25.434Z,51.97
2018-04-01T06:53:53.809Z,46.65
2018-04-01T06:56:21.369Z,45.00
2018-04-01T06:58:48.877Z,38.88
2018-04-01T07:01:16.485Z,41.30
2018-04-01T07:03:44.769Z,37.97
2018-04-01T07:06:12.275Z,34.60
2018-04-01T07:08:39.861Z,35.22
2018-04-01T07:11:08.138Z,37.15
2018-04-01T07:13:36.426Z,34.42
2018-04-01T07:16:04.801Z,34.15
2018-04-01T07:18:33.086Z,38.53
2018-04-01T07:21:00.594Z,37.10
2018-04-01T07:23:28.129Z,35.58
2018-04-01T07:25:55.642Z,36.03
2018-04-01T07:28:23.153Z,35.97
2018-04-01T07:30:50.778Z,38.85
2018-04-01T07:33:18.334Z,35.50
2018-04-01T07:35:46.610Z,36.53
2018-04-01T07:38:14.117Z,34.20
2018-04-01T07:40:41.639Z,38.38
2018-04-01T07:43:09.145Z,31.25
2018-04-01T07:45:36.666Z,29.30
2018-04-01T07:48:04.202Z,30.42
2018-04-01T07:50:31.722Z,30.88
2018-04-01T07:52:59.234Z,28.90
2018-04-01T07:55:26.770Z,29.87
2018-04-01T07:57:55.046Z,29.92
2018-04-01T08:00:23.421Z,31.60
2018-04-01T08:02:51.801Z,33.13
2018-04-01T08:05:19.365Z,31.52
2018-04-01T08:07:46.886Z,32.08
2018-04-01T08:10:14.578Z,31.92
2018-04-01T08:12:42.865Z,31.23
2018-04-01T08:15:10.382Z,29.85
2018-04-01T08:17:37.894Z,33.35
2018-04-01T08:20:05.431Z,30.90
2018-04-01T08:22:33.718Z,30.73
2018-04-01T08:25:01.234Z,29.42
2018-04-01T08:27:30.354Z,29.83
2018-04-01T08:29:58.730Z,29.33
2018-04-01T08:32:27.030Z,27.87
2018-04-01T08:34:54.565Z,23.55
2018-04-01T08:37:22.841Z,26.52
2018-04-01T08:39:51.386Z,28.33
2018-04-01T08:42:18.891Z,34.72
2018-04-01T08:44:46.409Z,32.00
2018-04-01T08:47:13.998Z,26.25
2018-04-01T08:49:42.374Z,23.75
2018-04-01T08:52:10.758Z,25.20
2018-04-01T08:54:38.314Z,23.95
2018-04-01T08:57:06.690Z,22.55
2018-04-01T08:59:35.052Z,24.40
2018-04-01T09:02:02.493Z,21.58
2018-04-01T09:04:30.082Z,23.15
2018-04-01T09:06:58.365Z,20.20
2018-04-01T09:09:25.881Z,21.60
2018-04-01T09:11:53.403Z,23.40
2018-04-01T09:14:20.918Z,20.73
2018-04-01T09:16:49.282Z,24.60
2018-04-01T09:19:16.789Z,21.33
2018-04-01T09:21:44.340Z,21.75
2018-04-01T09:24:11.846Z,19.90
2018-04-01T09:26:39.366Z,20.00
2018-04-01T09:29:06.894Z,22.25
2018-04-01T09:31:35.174Z,19.33
2018-04-01T09:34:03.553Z,20.00
2018-04-01T09:36:31.826Z,19.20
2018-04-01T09:39:00.106Z,21.48
2018-04-01T09:41:27.665Z,20.10
2018-04-01T09:43:55.941Z,20.20
2018-04-01T09:46:23.449Z,18.98
2018-04-01T09:48:51.050Z,20.77
2018-04-01T09:51:19.322Z,18.65
2018-04-01T09:53:47.701Z,20.45
2018-04-01T09:56:15.977Z,17.55
2018-04-01T09:58:44.294Z,22.17
2018-04-01T10:01:14.218Z,21.95
2018-04-01T10:03:42.238Z,21.42
2018-04-01T10:06:11.012Z,23.87
2018-04-01T10:08:39.254Z,21.27
2018-04-01T10:11:08.286Z,21.02
2018-04-01T10:13:36.573Z,21.52
2018-04-01T10:16:04.846Z,19.48
2018-04-01T10:18:33.122Z,20.40
2018-04-01T10:21:01.403Z,20.98
2018-04-01T10:23:29.645Z,19.00
2018-04-01T10:25:57.953Z,20.35
2018-04-01T10:28:26.203Z,20.75
2018-04-01T10:30:54.454Z,19.15
2018-04-01T10:33:23.497Z,21.55
2018-04-01T10:35:51.840Z,19.67
2018-04-01T10:38:20.861Z,17.73
2018-04-01T10:40:49.138Z,17.67
2018-04-01T10:43:17.409Z,16.87
2018-04-01T10:45:45.645Z,18.83
2018-04-01T10:48:14.662Z,16.85
2018-04-01T10:50:42.962Z,17.35
2018-04-01T10:53:11.222Z,18.77
2018-04-01T10:55:38.997Z,17.20
2018-04-01T10:58:07.277Z,22.65
2018-04-01T11:00:34.833Z,17.62
2018-04-01T11:03:03.130Z,16.87
2018-04-01T11:05:30.670Z,16.55
2018-04-01T11:07:58.950Z,14.85
2018-04-01T11:10:26.507Z,17.00
2018-04-01T11:12:54.786Z,16.30
2018-04-01T11:15:22.333Z,18.42
2018-04-01T11:17:50.623Z,16.73
2018-04-01T11:20:18.169Z,16.30
2018-04-01T11:22:47.342Z,14.23
2018-04-01T11:25:14.928Z,15.70
2018-04-01T11:27:43.305Z,16.27
2018-04-01T11:30:11.582Z,15.00
2018-04-01T11:32:39.146Z,14.98
2018-04-01T11:35:06.661Z,13.77
2018-04-01T11:37:34.253Z,14.90
2018-04-01T11:40:02.541Z,14.87
2018-04-01T11:42:30.050Z,12.25
2018-04-01T11:44:57.651Z,11.57
2018-04-01T11:47:25.928Z,12.50
2018-04-01T11:49:53.442Z,13.43
2018-04-01T11:52:20.965Z,14.32
2018-04-01T11:54:48.493Z,16.15
2018-04-01T11:57:17.118Z,14.73
2018-04-01T11:59:44.625Z,14.23
2018-04-01T12:02:12.912Z,14.85
2018-04-01T12:04:41.271Z,15.25
2018-04-01T12:07:08.793Z,16.60
2018-04-01T12:09:36.315Z,19.42
2018-04-01T12:12:03.940Z,13.82
2018-04-01T12:14:31.521Z,14.93
2018-04-01T12:16:59.918Z,14.68
2018-04-01T12:19:27.439Z,13.07
2018-04-01T12:21:54.941Z,13.48
2018-04-01T12:24:22.470Z,13.38
2018-04-01T12:26:50.781Z,13.50
2018-04-01T12:29:19.013Z,12.98
2018-04-01T12:31:47.304Z,12.52
2018-04-01T12:34:15.582Z,16.23
2018-04-01T12:36:43.090Z,12.45
2018-04-01T12:39:10.601Z,15.32
2018-04-01T12:41:38.150Z,13.02
2018-04-01T12:44:06.417Z,14.20
2018-04-01T12:46:34.801Z,12.98
2018-04-01T12:49:03.178Z,13.62
2018-04-01T12:51:31.467Z,13.95
2018-04-01T12:53:59.830Z,13.50
2018-04-01T12:56:28.105Z,11.68
2018-04-01T12:58:56.377Z,14.57
2018-04-01T13:01:24.657Z,14.32
2018-04-01T13:03:53.038Z,14.80
2018-04-01T13:06:21.320Z,15.18
2018-04-01T13:08:49.690Z,14.25
2018-04-01T13:11:17.970Z,17.95
2018-04-01T13:13:46.246Z,16.87
2018-04-01T13:16:14.529Z,15.13
2018-04-01T13:18:42.097Z,15.05
2018-04-01T13:21:10.453Z,16.00
2018-04-01T13:23:38.732Z,14.55
2018-04-01T13:26:07.010Z,14.77
2018-04-01T13:28:34.567Z,14.90
2018-04-01T13:31:02.846Z,16.35
2018-04-01T13:33:30.360Z,14.50
2018-04-01T13:35:57.962Z,15.85
2018-04-01T13:38:25.529Z,16.12
2018-04-01T13:40:53.890Z,16.20
2018-04-01T13:43:22.177Z,14.85
2018-04-01T13:45:49.729Z,15.32
2018-04-01T13:48:18.101Z,14.00
2018-04-01T13:50:46.481Z,14.73
2018-04-01T13:53:14.762Z,13.75
2018-04-01T13:55:43.134Z,15.57
2018-04-01T13:58:11.494Z,13.80
2018-04-01T14:00:39.056Z,13.27
2018-04-01T14:03:07.354Z,14.87
2018-04-01T14:05:34.906Z,12.93
2018-04-01T14:08:03.186Z,12.98
2018-04-01T14:10:31.519Z,14.18
2018-04-01T14:12:59.026Z,11.77
2018-04-01T14:15:27.418Z,14.18
2018-04-01T14:17:54.962Z,14.52
2018-04-01T14:20:23.334Z,12.02
2018-04-01T14:22:51.605Z,16.10
2018-04-01T14:25:19.885Z,22.37
2018-04-01T14:27:48.192Z,16.85
2018-04-01T14:30:16.566Z,13.75
2018-04-01T14:32:44.026Z,14.95
2018-04-01T14:35:11.558Z,13.13
2018-04-01T14:37:39.839Z,14.40
2018-04-01T14:40:07.394Z,11.50
2018-04-01T14:42:35.682Z,13.32
2018-04-01T14:45:03.233Z,13.23
2018-04-01T14:47:31.501Z,14.90
2018-04-01T14:49:59.881Z,12.07
2018-04-01T14:52:28.254Z,15.23
2018-04-01T14:54:56.525Z,13.55
2018-04-01T14:57:24.802Z,14.35
2018-04-01T14:59:53.079Z,13.85
2018-04-01T15:02:21.457Z,17.92
2018-04-01T15:04:49.837Z,13.43
2018-04-01T15:07:18.213Z,14.75
2018-04-01T15:09:46.494Z,13.68
2018-04-01T15:12:14.762Z,13.48
2018-04-01T15:14:43.043Z,14.70
2018-04-01T15:17:11.426Z,15.02
2018-04-01T15:19:38.978Z,14.80
2018-04-01T15:22:07.355Z,16.45
2018-04-01T15:24:35.657Z,13.85
2018-04-01T15:27:03.178Z,15.77
2018-04-01T15:29:30.746Z,16.23
2018-04-01T15:31:59.037Z,15.55
2018-04-01T15:34:26.542Z,13.43
2018-04-01T15:36:54.138Z,17.35
2018-04-01T15:39:22.413Z,20.83
2018-04-01T15:41:50.793Z,20.70
2018-04-01T15:44:19.170Z,19.20
2018-04-01T15:46:47.472Z,15.30
2018-04-01T15:49:15.851Z,18.60
2018-04-01T15:51:44.202Z,17.42
2018-04-01T15:54:12.478Z,18.10
2018-04-01T15:56:40.753Z,20.05
2018-04-01T15:59:09.038Z,20.40
2018-04-01T16:01:36.551Z,21.95
2018-04-01T16:04:04.065Z,23.40
2018-04-01T16:06:31.608Z,24.37
2018-04-01T16:08:59.166Z,25.08
2018-04-01T16:11:27.538Z,24.37
2018-04-01T16:13:55.138Z,27.45
2018-04-01T16:16:23.378Z,25.30
2018-04-01T16:18:50.897Z,25.75
2018-04-01T16:21:18.489Z,25.92
2018-04-01T16:23:46.798Z,28.02
2018-04-01T16:26:14.301Z,26.00
2018-04-01T16:28:45.166Z,27.00
2018-04-01T16:31:13.173Z,24.98
2018-04-01T16:33:40.666Z,22.13
2018-04-01T16:36:09.346Z,21.73
2018-04-01T16:38:36.934Z,21.02
2018-04-01T16:41:05.214Z,21.20
2018-04-01T16:43:33.503Z,26.75
2018-04-01T16:46:01.042Z,29.02
2018-04-01T16:48:29.321Z,19.27
2018-04-01T16:50:57.694Z,19.67
2018-04-01T16:53:26.073Z,18.25
2018-04-01T16:55:54.345Z,17.73
2018-04-01T16:58:22.626Z,17.62
2018-04-01T17:00:51.014Z,18.33
2018-04-01T17:03:18.567Z,19.87
2018-04-01T17:05:46.942Z,19.45
2018-04-01T17:08:15.370Z,20.25
2018-04-01T17:10:42.978Z,17.80
2018-04-01T17:13:11.258Z,19.23
2018-04-01T17:15:39.526Z,19.00
2018-04-01T17:18:07.813Z,17.62
2018-04-01T17:20:35.325Z,18.17
2018-04-01T17:23:02.922Z,18.65
2018-04-01T17:25:31.197Z,18.70
2018-04-01T17:28:03.880Z,19.08
2018-04-01T17:30:32.777Z,18.45
2018-04-01T17:33:00.502Z,17.98
2018-04-01T17:35:28.094Z,17.62
2018-04-01T17:37:56.365Z,20.90
2018-04-01T17:40:24.750Z,17.87
2018-04-01T17:42:52.319Z,18.90
2018-04-01T17:45:20.582Z,19.52
2018-04-01T17:47:48.853Z,18.10
2018-04-01T17:50:17.233Z,18.75
2018-04-01T17:52:45.514Z,20.55
2018-04-01T17:55:13.061Z,20.90
2018-04-01T17:57:41.341Z,21.95
2018-04-01T18:00:09.699Z,19.62
2018-04-01T18:02:37.277Z,20.23
2018-04-01T18:05:05.549Z,21.48
2018-04-01T18:07:33.836Z,19.45
2018-04-01T18:10:01.342Z,21.98
2018-04-01T18:12:28.856Z,19.20
2018-04-01T18:14:56.357Z,22.55
2018-04-01T18:17:23.957Z,18.77
2018-04-01T18:19:52.233Z,21.02
2018-04-01T18:22:20.513Z,22.27
2018-04-01T18:24:48.022Z,19.23
2018-04-01T18:27:15.547Z,21.15
2018-04-01T18:29:43.087Z,20.88
2018-04-01T18:32:11.369Z,24.52
2018-04-01T18:34:38.913Z,22.62
2018-04-01T18:37:07.189Z,23.25
2018-04-01T18:39:35.581Z,22.48
2018-04-01T18:42:03.962Z,23.00
2018-04-01T18:44:31.738Z,22.15
2018-04-01T18:47:03.371Z,22.27
2018-04-01T18:49:32.394Z,23.20
2018-04-01T18:51:59.906Z,24.20
2018-04-01T18:54:28.190Z,24.02
2018-04-01T18:56:56.466Z,25.50
2018-04-01T18:59:24.750Z,24.95
2018-04-01T19:01:52.297Z,24.85
2018-04-01T19:04:20.585Z,24.05
2018-04-01T19:06:48.134Z,26.85
2018-04-01T19:09:16.418Z,21.87
2018-04-01T19:11:43.975Z,23.50
2018-04-01T19:14:11.489Z,24.27
2018-04-01T19:19:39.670Z,22.67
2018-04-01T19:22:08.686Z,25.30
2018-04-01T19:24:36.939Z,25.70
2018-04-01T19:27:05.959Z,28.83
2018-04-01T19:29:34.208Z,27.58
2018-04-01T19:32:02.530Z,25.30
2018-04-01T19:34:30.773Z,25.27
2018-04-01T19:36:59.023Z,25.45
2018-04-01T19:39:27.359Z,27.15
2018-04-01T19:41:55.601Z,26.10
2018-04-01T19:44:23.858Z,25.00
2018-04-01T19:46:52.901Z,23.35
2018-04-01T19:49:21.150Z,24.90
2018-04-01T19:51:49.405Z,29.42
2018-04-01T19:54:18.547Z,24.73
2018-04-01T19:56:46.835Z,27.73
2018-04-01T19:59:15.122Z,23.52
2018-04-01T20:01:43.377Z,25.58
2018-04-01T20:04:11.632Z,23.92
2018-04-01T20:06:39.890Z,25.62
2018-04-01T20:09:08.914Z,28.55
2018-04-01T20:11:37.163Z,29.63
2018-04-01T20:14:05.485Z,31.05
2018-04-01T20:16:33.741Z,29.27
2018-04-01T20:19:02.027Z,28.65
2018-04-01T20:21:30.300Z,29.40
2018-04-01T20:23:58.545Z,25.90
2018-04-01T20:26:27.665Z,31.17
2018-04-01T20:28:55.937Z,34.20
2018-04-01T20:31:24.258Z,31.08
2018-04-01T20:33:52.485Z,31.15
2018-04-01T20:36:20.770Z,28.35
2018-04-01T20:38:49.030Z,29.87
2018-04-01T20:41:17.361Z,34.20
2018-04-01T20:43:45.615Z,32.13
2018-04-01T20:46:13.866Z,28.27
2018-04-01T20:48:42.142Z,34.70
2018-04-01T20:51:10.430Z,32.20
2018-04-01T20:53:38.661Z,30.90
2018-04-01T20:56:06.922Z,30.12
2018-04-01T20:58:35.930Z,32.95
2018-04-01T21:01:04.946Z,29.85
2018-04-01T21:03:33.226Z,30.45
2018-04-01T21:06:01.486Z,31.40
2018-04-01T21:08:30.137Z,31.52
2018-04-01T21:10:58.385Z,29.65
2018-04-01T21:13:26.641Z,29.00
2018-04-01T21:15:55.625Z,29.12
2018-04-01T21:18:23.901Z,31.25
2018-04-01T21:20:52.326Z,31.98
2018-04-01T21:23:20.558Z,33.08
2018-04-01T21:25:48.814Z,34.47
2018-04-01T21:28:17.059Z,29.52
2018-04-01T21:30:46.105Z,31.33
2018-04-01T21:33:14.357Z,30.75
2018-04-01T21:35:42.610Z,30.65
2018-04-01T21:38:11.627Z,30.60
2018-04-01T21:40:39.870Z,32.47
2018-04-01T21:43:08.914Z,30.48
2018-04-01T21:45:37.170Z,33.28
2018-04-01T21:48:05.425Z,31.37
2018-04-01T21:50:34.454Z,35.20
2018-04-01T21:53:02.728Z,35.88
2018-04-01T21:55:30.973Z,38.45
2018-04-01T21:57:59.994Z,37.58
2018-04-01T22:00:28.250Z,36.15
2018-04-01T22:02:56.549Z,36.92
2018-04-01T22:05:24.821Z,33.90
2018-04-01T22:07:53.101Z,35.35
2018-04-01T22:10:21.354Z,35.40
2018-04-01T22:12:49.609Z,37.95
2018-04-01T22:15:18.630Z,35.03
2018-04-01T22:17:46.878Z,34.83
2018-04-01T22:20:16.022Z,36.63
2018-04-01T22:22:56.190Z,36.15
2018-04-01T22:25:24.454Z,36.50
2018-04-01T22:27:52.713Z,37.50
2018-04-01T22:30:20.998Z,38.17
2018-04-01T22:32:49.241Z,37.80
2018-04-01T22:35:17.549Z,34.00
2018-04-01T22:37:45.798Z,35.83
2018-04-01T22:40:14.046Z,34.63
2018-04-01T22:42:43.070Z,36.53
2018-04-01T22:45:11.374Z,33.22
2018-04-01T22:47:39.618Z,36.75
2018-04-01T22:50:11.019Z,34.95
2018-04-01T22:52:39.657Z,48.10
2018-04-01T22:55:07.907Z,55.85
2018-04-01T22:57:36.918Z,57.75
2018-04-01T23:00:05.167Z,59.97
2018-04-01T23:02:33.170Z,61.60
2018-04-01T23:05:01.457Z,61.25
2018-04-01T23:07:29.702Z,62.17
2018-04-01T23:09:57.954Z,62.05
2018-04-01T23:12:26.206Z,62.08
2018-04-01T23:14:54.450Z,61.28
2018-04-01T23:17:22.700Z,63.97
2018-04-01T23:19:51.722Z,61.33
2018-04-01T23:22:19.972Z,58.67
2018-04-01T23:24:48.286Z,62.62
2018-04-01T23:27:16.538Z,58.25
2018-04-01T23:29:44.833Z,62.75
2018-04-01T23:32:13.107Z,63.38
2018-04-01T23:34:41.348Z,62.90
2018-04-01T23:37:09.598Z,63.75
2018-04-01T23:39:38.613Z,61.50
2018-04-01T23:42:06.866Z,63.50
2018-04-01T23:44:35.878Z,63.58
2018-04-01T23:47:04.907Z,60.85
2018-04-01T23:49:33.148Z,60.15
2018-04-01T23:52:01.406Z,63.60
2018-04-01T23:54:30.449Z,63.20
2018-04-01T23:56:58.726Z,68.45
2018-04-01T23:59:26.986Z,62.50
